Time;durP1;ratioP1;P1;durP2;ratioP2;P2;SDS_P1;SDS_P2;PMS_P1;PMS_P2;Temp;Humidity;BMP_temperature;BMP_pressure;BME280_temperature;BME280_humidity;BME280_pressure;Samples;Min_cycle;Max_cycle;Signal;HPM_P1;HPM_P2
2021/10/14 00:00:37;;;;;;;10.65;3.50;;;;;;;;;;5049087;28;20397;-69
2021/10/14 00:03:06;;;;;;;6.97;3.03;;;;;;;;;;5048749;28;20030;-69
2021/10/14 00:05:33;;;;;;;10.05;3.88;;;;;;;;;;5060494;28;20037;-69
2021/10/14 00:07:59;;;;;;;10.93;3.97;;;;;;;;;;5051257;28;20033;-68
2021/10/14 00:10:25;;;;;;;9.65;3.13;;;;;;;;;;5048786;28;20511;-69
2021/10/14 00:12:51;;;;;;;11.55;3.22;;;;;;;;;;5048984;28;20040;-69
2021/10/14 00:15:17;;;;;;;10.35;3.33;;;;;;;;;;5050102;28;20032;-69
2021/10/14 00:17:43;;;;;;;9.20;3.05;;;;;;;;;;5048964;28;20036;-69
2021/10/14 00:20:09;;;;;;;6.68;2.72;;;;;;;;;;5052499;28;20025;-69
2021/10/14 00:22:35;;;;;;;7.13;2.90;;;;;;;;;;5048209;28;20036;-69
2021/10/14 00:25:01;;;;;;;7.80;2.80;;;;;;;;;;5049487;28;20032;-69
2021/10/14 00:27:28;;;;;;;8.32;2.67;;;;;;;;;;5048210;28;20021;-69
2021/10/14 00:29:54;;;;;;;8.63;3.25;;;;;;;;;;5048305;28;20050;-69
2021/10/14 00:32:20;;;;;;;9.02;3.83;;;;;;;;;;5050874;28;20036;-68
2021/10/14 00:34:46;;;;;;;7.47;3.15;;;;;;;;;;5054661;28;20044;-68
2021/10/14 00:37:12;;;;;;;7.95;3.10;;;;;;;;;;5051876;28;20481;-69
2021/10/14 00:39:38;;;;;;;6.82;2.58;;;;;;;;;;5048134;28;20032;-69
2021/10/14 00:42:04;;;;;;;8.90;3.15;;;;;;;;;;5047726;28;20040;-69
2021/10/14 00:44:43;;;;;;;7.25;2.88;;;;;;;;;;5051729;28;20021;-69
2021/10/14 00:47:09;;;;;;;6.90;2.90;;;;;;;;;;5052152;28;20033;-69
2021/10/14 00:49:35;;;;;;;7.70;2.85;;;;;;;;;;5047975;28;20492;-68
2021/10/14 00:52:01;;;;;;;9.20;3.60;;;;;;;;;;5047765;28;20033;-69
2021/10/14 00:54:27;;;;;;;8.50;3.05;;;;;;;;;;5049911;28;20115;-69
2021/10/14 00:56:54;;;;;;;8.32;3.33;;;;;;;;;;5048162;28;20083;-70
2021/10/14 00:59:21;;;;;;;9.63;3.00;;;;;;;;;;5050274;28;20029;-70
2021/10/14 01:01:47;;;;;;;8.00;2.80;;;;;;;;;;5049406;28;20017;-70
2021/10/14 01:04:13;;;;;;;11.82;3.80;;;;;;;;;;5049746;28;20037;-70
2021/10/14 01:06:39;;;;;;;10.07;3.28;;;;;;;;;;5056125;28;20388;-70
2021/10/14 01:09:05;;;;;;;9.20;3.00;;;;;;;;;;5046565;28;20033;-69
2021/10/14 01:11:31;;;;;;;8.32;2.88;;;;;;;;;;5049331;28;20029;-69
2021/10/14 01:13:57;;;;;;;7.63;3.03;;;;;;;;;;5050075;28;20056;-69
2021/10/14 01:16:23;;;;;;;6.97;2.67;;;;;;;;;;5049553;28;20421;-69
2021/10/14 01:18:49;;;;;;;4.20;2.10;;;;;;;;;;5047467;28;20037;-69
2021/10/14 01:21:15;;;;;;;6.47;2.58;;;;;;;;;;5046257;28;20029;-70
2021/10/14 01:23:41;;;;;;;5.60;2.47;;;;;;;;;;5032581;28;20423;-69
2021/10/14 01:26:07;;;;;;;6.32;2.47;;;;;;;;;;5052946;28;20068;-69
2021/10/14 01:28:33;;;;;;;8.20;2.65;;;;;;;;;;5046619;28;20476;-69
2021/10/14 01:30:59;;;;;;;5.32;2.58;;;;;;;;;;5047036;28;20080;-69
2021/10/14 01:33:26;;;;;;;6.53;2.65;;;;;;;;;;5047786;28;20033;-69
2021/10/14 01:35:51;;;;;;;6.82;2.45;;;;;;;;;;5057626;28;20096;-69
2021/10/14 01:38:18;;;;;;;5.78;2.10;;;;;;;;;;5050590;28;20457;-69
2021/10/14 01:40:44;;;;;;;5.88;2.45;;;;;;;;;;5048301;28;20112;-69
2021/10/14 01:43:14;;;;;;;6.85;2.10;;;;;;;;;;5045539;28;20063;-69
2021/10/14 01:45:40;;;;;;;3.85;1.52;;;;;;;;;;5049036;28;20400;-69
2021/10/14 01:48:06;;;;;;;8.20;2.00;;;;;;;;;;5047818;28;20039;-69
2021/10/14 01:50:32;;;;;;;7.57;2.30;;;;;;;;;;5049779;28;20087;-70
2021/10/14 01:52:58;;;;;;;9.40;2.42;;;;;;;;;;5053668;28;20025;-69
2021/10/14 01:55:24;;;;;;;4.75;1.98;;;;;;;;;;5053004;28;20037;-70
2021/10/14 01:57:50;;;;;;;5.75;2.00;;;;;;;;;;5051199;28;20025;-70
2021/10/14 02:00:16;;;;;;;6.07;2.42;;;;;;;;;;5051582;28;20025;-69
2021/10/14 02:02:42;;;;;;;5.30;2.13;;;;;;;;;;5051732;28;20065;-69
2021/10/14 02:05:08;;;;;;;4.90;2.28;;;;;;;;;;5064197;28;20052;-69
2021/10/14 02:07:34;;;;;;;6.05;2.20;;;;;;;;;;5051492;28;20032;-70
2021/10/14 02:10:00;;;;;;;8.85;2.00;;;;;;;;;;5050787;28;20516;-70
2021/10/14 02:12:26;;;;;;;5.53;2.03;;;;;;;;;;5051169;28;20086;-70
2021/10/14 02:14:53;;;;;;;5.75;2.42;;;;;;;;;;5052902;28;20050;-69
2021/10/14 02:17:19;;;;;;;7.13;2.20;;;;;;;;;;5053801;28;20028;-70
2021/10/14 02:19:45;;;;;;;5.53;2.00;;;;;;;;;;5051992;28;20036;-70
2021/10/14 02:22:11;;;;;;;4.72;2.13;;;;;;;;;;5050767;28;20333;-70
2021/10/14 02:24:37;;;;;;;6.78;2.17;;;;;;;;;;5052848;28;20242;-70
2021/10/14 02:27:03;;;;;;;4.40;1.88;;;;;;;;;;5051162;28;20100;-69
2021/10/14 02:29:29;;;;;;;4.80;2.00;;;;;;;;;;5052499;28;20180;-69
2021/10/14 02:31:55;;;;;;;4.93;2.15;;;;;;;;;;5052709;28;20033;-69
2021/10/14 02:34:22;;;;;;;5.53;2.25;;;;;;;;;;5052920;28;20441;-69
2021/10/14 02:36:48;;;;;;;4.97;2.45;;;;;;;;;;5057728;28;20497;-69
2021/10/14 02:39:14;;;;;;;7.65;2.33;;;;;;;;;;5050732;28;20028;-69
2021/10/14 02:41:40;;;;;;;4.38;2.28;;;;;;;;;;5051167;28;20097;-69
2021/10/14 02:44:06;;;;;;;5.30;2.30;;;;;;;;;;5053674;28;20029;-69
2021/10/14 02:46:32;;;;;;;6.32;2.00;;;;;;;;;;5050377;28;20024;-69
2021/10/14 02:48:58;;;;;;;3.65;2.00;;;;;;;;;;5049410;28;20041;-69
2021/10/14 02:51:24;;;;;;;9.85;2.35;;;;;;;;;;5048105;28;20115;-69
2021/10/14 02:53:50;;;;;;;4.38;1.90;;;;;;;;;;5048591;28;20473;-69
2021/10/14 02:56:16;;;;;;;4.47;2.22;;;;;;;;;;5055354;28;20025;-70
2021/10/14 02:58:42;;;;;;;5.75;2.22;;;;;;;;;;5051032;28;20037;-69
2021/10/14 03:01:08;;;;;;;4.22;1.90;;;;;;;;;;5050127;28;20029;-68
2021/10/14 03:03:34;;;;;;;4.78;2.22;;;;;;;;;;5050321;28;20066;-69
2021/10/14 03:06:00;;;;;;;5.97;2.53;;;;;;;;;;5059485;28;20520;-69
2021/10/14 03:08:26;;;;;;;3.22;1.80;;;;;;;;;;5052553;28;20155;-69
2021/10/14 03:10:52;;;;;;;4.45;2.22;;;;;;;;;;5051181;28;20124;-69
2021/10/14 03:13:18;;;;;;;3.90;1.80;;;;;;;;;;5049860;28;20366;-69
2021/10/14 03:15:44;;;;;;;5.65;1.90;;;;;;;;;;5050619;28;20036;-69
2021/10/14 03:18:10;;;;;;;4.28;2.03;;;;;;;;;;5049825;28;20032;-69
2021/10/14 03:20:36;;;;;;;4.13;1.77;;;;;;;;;;5051008;28;20159;-69
2021/10/14 03:23:02;;;;;;;5.88;1.98;;;;;;;;;;5052164;28;20028;-69
2021/10/14 03:25:28;;;;;;;5.22;2.40;;;;;;;;;;5051898;28;20021;-68
2021/10/14 03:27:54;;;;;;;6.72;1.90;;;;;;;;;;5049540;28;20035;-69
2021/10/14 03:30:20;;;;;;;5.38;2.17;;;;;;;;;;5049478;28;20048;-68
2021/10/14 03:32:46;;;;;;;3.50;1.80;;;;;;;;;;5051766;28;20029;-68
2021/10/14 03:35:12;;;;;;;4.43;1.95;;;;;;;;;;5053354;28;20064;-68
2021/10/14 03:37:39;;;;;;;3.55;1.70;;;;;;;;;;5048987;28;20056;-68
2021/10/14 03:40:05;;;;;;;7.43;2.75;;;;;;;;;;5051594;28;20079;-68
2021/10/14 03:42:31;;;;;;;7.03;2.17;;;;;;;;;;5049466;28;20075;-68
2021/10/14 03:44:57;;;;;;;5.35;2.50;;;;;;;;;;5051385;28;20033;-68
2021/10/14 03:47:24;;;;;;;4.93;2.00;;;;;;;;;;5052034;28;20033;-69
2021/10/14 03:49:50;;;;;;;7.13;2.30;;;;;;;;;;5050575;28;20047;-68
2021/10/14 03:52:16;;;;;;;4.78;2.40;;;;;;;;;;5049086;28;20068;-68
2021/10/14 03:54:42;;;;;;;6.93;2.35;;;;;;;;;;5051804;28;20052;-69
2021/10/14 03:57:08;;;;;;;4.50;2.30;;;;;;;;;;5049551;28;20052;-69
2021/10/14 03:59:34;;;;;;;4.20;1.85;;;;;;;;;;5050321;28;20037;-69
2021/10/14 04:02:00;;;;;;;4.95;2.05;;;;;;;;;;5049769;28;20365;-69
2021/10/14 04:04:26;;;;;;;4.35;2.03;;;;;;;;;;5052199;28;20039;-68
2021/10/14 04:06:52;;;;;;;5.35;2.35;;;;;;;;;;5058504;28;20044;-68
2021/10/14 04:09:18;;;;;;;4.90;2.10;;;;;;;;;;5058806;28;20535;-68
2021/10/14 04:11:45;;;;;;;5.00;2.13;;;;;;;;;;5048845;28;20029;-68
2021/10/14 04:14:11;;;;;;;4.03;2.00;;;;;;;;;;5052645;28;20495;-68
2021/10/14 04:16:37;;;;;;;6.25;2.00;;;;;;;;;;5049128;28;20029;-69
2021/10/14 04:19:03;;;;;;;5.90;1.90;;;;;;;;;;5048709;28;20029;-69
2021/10/14 04:21:29;;;;;;;5.80;2.40;;;;;;;;;;5048710;28;20060;-68
2021/10/14 04:23:56;;;;;;;4.70;2.00;;;;;;;;;;5048844;28;20030;-68
2021/10/14 04:26:22;;;;;;;3.50;1.70;;;;;;;;;;5051510;28;20029;-69
2021/10/14 04:28:48;;;;;;;3.88;1.88;;;;;;;;;;5049504;28;20507;-68
2021/10/14 04:31:14;;;;;;;6.00;2.00;;;;;;;;;;5048654;28;20033;-69
2021/10/14 04:33:40;;;;;;;4.03;1.83;;;;;;;;;;5056209;28;20028;-69
2021/10/14 04:36:06;;;;;;;10.68;2.25;;;;;;;;;;5056892;28;20736;-69
2021/10/14 04:38:32;;;;;;;5.38;2.10;;;;;;;;;;5049647;28;20083;-68
2021/10/14 04:40:58;;;;;;;4.28;2.10;;;;;;;;;;5050651;28;20548;-69
2021/10/14 04:43:24;;;;;;;3.95;2.17;;;;;;;;;;5048511;28;20036;-69
2021/10/14 04:45:51;;;;;;;4.70;2.10;;;;;;;;;;5049897;28;20036;-70
2021/10/14 04:48:17;;;;;;;6.97;2.67;;;;;;;;;;5048158;28;20028;-70
2021/10/14 04:50:43;;;;;;;7.22;2.22;;;;;;;;;;5048368;28;20685;-70
2021/10/14 04:53:09;;;;;;;5.38;2.25;;;;;;;;;;5047561;28;20053;-70
2021/10/14 04:55:35;;;;;;;5.05;2.58;;;;;;;;;;5050017;28;20033;-70
2021/10/14 04:58:01;;;;;;;5.88;2.40;;;;;;;;;;5048369;28;20460;-70
2021/10/14 05:00:27;;;;;;;4.32;2.00;;;;;;;;;;5048442;28;20025;-68
2021/10/14 05:02:53;;;;;;;4.63;1.92;;;;;;;;;;5047295;28;20112;-69
2021/10/14 05:05:19;;;;;;;8.02;1.95;;;;;;;;;;5058979;28;20170;-69
2021/10/14 05:07:45;;;;;;;6.55;2.30;;;;;;;;;;5050468;28;20029;-69
2021/10/14 05:10:11;;;;;;;4.45;1.80;;;;;;;;;;5048090;28;20048;-69
2021/10/14 05:12:37;;;;;;;5.95;2.40;;;;;;;;;;5047194;28;20028;-68
2021/10/14 05:15:07;;;;;;;5.13;2.17;;;;;;;;;;5049419;28;20112;-69
2021/10/14 05:17:33;;;;;;;6.72;2.78;;;;;;;;;;5049325;28;20047;-68
2021/10/14 05:20:00;;;;;;;5.07;2.33;;;;;;;;;;5050275;28;20029;-68
2021/10/14 05:22:26;;;;;;;6.35;2.53;;;;;;;;;;5047765;28;20162;-68
2021/10/14 05:24:52;;;;;;;6.68;2.35;;;;;;;;;;5048100;28;20495;-68
2021/10/14 05:27:18;;;;;;;5.18;2.25;;;;;;;;;;5048035;28;20100;-68
2021/10/14 05:29:44;;;;;;;7.25;2.08;;;;;;;;;;5047925;28;20485;-68
2021/10/14 05:32:10;;;;;;;9.82;3.05;;;;;;;;;;5050898;28;20073;-68
2021/10/14 05:34:36;;;;;;;9.45;3.38;;;;;;;;;;5052214;28;20428;-69
2021/10/14 05:37:02;;;;;;;8.70;3.47;;;;;;;;;;5051549;28;20025;-68
2021/10/14 05:39:28;;;;;;;9.48;3.63;;;;;;;;;;5047564;28;20060;-68
2021/10/14 05:41:54;;;;;;;11.18;3.30;;;;;;;;;;5047991;28;20029;-68
2021/10/14 05:44:20;;;;;;;11.40;3.95;;;;;;;;;;5051857;28;20029;-68
2021/10/14 05:46:46;;;;;;;8.75;3.50;;;;;;;;;;5049393;28;20447;-68
2021/10/14 05:49:12;;;;;;;14.13;3.88;;;;;;;;;;5047319;28;20040;-68
2021/10/14 05:51:38;;;;;;;8.75;3.50;;;;;;;;;;5047531;28;20029;-68
2021/10/14 05:54:04;;;;;;;11.20;3.63;;;;;;;;;;5047948;28;20068;-68
2021/10/14 05:56:30;;;;;;;9.38;3.30;;;;;;;;;;5051177;28;20040;-68
2021/10/14 05:58:56;;;;;;;12.32;4.72;;;;;;;;;;5049267;28;20374;-68
2021/10/14 06:01:22;;;;;;;7.85;3.17;;;;;;;;;;5047478;28;20536;-68
2021/10/14 06:03:48;;;;;;;8.60;3.55;;;;;;;;;;5047201;28;20401;-68
2021/10/14 06:06:14;;;;;;;10.05;3.75;;;;;;;;;;5056882;28;20029;-68
2021/10/14 06:08:40;;;;;;;8.98;3.70;;;;;;;;;;5048236;28;20163;-68
2021/10/14 06:11:06;;;;;;;10.38;3.65;;;;;;;;;;5050538;28;20542;-76
2021/10/14 06:13:35;;;;;;;8.45;3.60;;;;;;;;;;5047460;28;20097;-69
2021/10/14 06:16:01;;;;;;;13.93;3.72;;;;;;;;;;5048493;28;20033;-69
2021/10/14 06:18:27;;;;;;;11.63;4.57;;;;;;;;;;5048213;28;20017;-74
2021/10/14 06:20:53;;;;;;;10.02;3.95;;;;;;;;;;5046190;28;20057;-74
2021/10/14 06:23:19;;;;;;;8.32;3.80;;;;;;;;;;5048877;28;20532;-74
2021/10/14 06:25:45;;;;;;;10.32;3.75;;;;;;;;;;5047850;28;20032;-74
2021/10/14 06:28:11;;;;;;;12.18;4.70;;;;;;;;;;5045819;28;20024;-74
2021/10/14 06:30:37;;;;;;;13.07;5.20;;;;;;;;;;5046578;28;20152;-74
2021/10/14 06:33:03;;;;;;;9.88;4.15;;;;;;;;;;5047119;28;20489;-74
2021/10/14 06:35:29;;;;;;;8.80;4.07;;;;;;;;;;5058986;28;20021;-74
2021/10/14 06:37:56;;;;;;;11.50;5.47;;;;;;;;;;5051777;28;20453;-75
2021/10/14 06:40:22;;;;;;;9.23;3.97;;;;;;;;;;5050902;28;20025;-74
2021/10/14 06:42:48;;;;;;;11.15;4.30;;;;;;;;;;5050498;28;20029;-74
2021/10/14 06:45:14;;;;;;;12.55;4.65;;;;;;;;;;5052011;28;20025;-74
2021/10/14 06:47:40;;;;;;;11.15;4.07;;;;;;;;;;5051194;28;20037;-75
2021/10/14 06:50:07;;;;;;;10.63;3.72;;;;;;;;;;5053909;28;20079;-74
2021/10/14 06:52:33;;;;;;;8.48;3.47;;;;;;;;;;5049863;28;20033;-75
2021/10/14 06:54:59;;;;;;;13.38;4.97;;;;;;;;;;5052299;28;20057;-75
2021/10/14 06:57:25;;;;;;;11.48;4.60;;;;;;;;;;5050529;28;20079;-75
2021/10/14 06:59:52;;;;;;;9.15;3.78;;;;;;;;;;5050226;28;20040;-75
2021/10/14 07:02:18;;;;;;;8.35;3.63;;;;;;;;;;5052946;28;20073;-76
2021/10/14 07:04:44;;;;;;;9.45;3.80;;;;;;;;;;5056889;28;20480;-76
2021/10/14 07:07:10;;;;;;;10.57;3.80;;;;;;;;;;5054071;28;20041;-74
2021/10/14 07:09:36;;;;;;;8.90;4.22;;;;;;;;;;5049749;28;20036;-74
2021/10/14 07:12:10;;;;;;;9.65;4.53;;;;;;;;;;5049173;28;20112;-75
2021/10/14 07:14:36;;;;;;;8.77;3.53;;;;;;;;;;5052658;28;20480;-75
2021/10/14 07:17:02;;;;;;;7.30;4.00;;;;;;;;;;5052540;28;20146;-75
2021/10/14 07:19:28;;;;;;;10.98;3.95;;;;;;;;;;5049770;28;20041;-75
2021/10/14 07:21:54;;;;;;;10.02;4.63;;;;;;;;;;5049618;28;20025;-74
2021/10/14 07:24:20;;;;;;;9.63;5.00;;;;;;;;;;5051791;28;20024;-74
2021/10/14 07:26:46;;;;;;;9.45;4.13;;;;;;;;;;5048926;28;20044;-75
2021/10/14 07:29:12;;;;;;;12.77;5.20;;;;;;;;;;5052485;28;20066;-74
2021/10/14 07:31:40;;;;;;;10.88;5.20;;;;;;;;;;5048409;28;20111;-74
2021/10/14 07:34:06;;;;;;;10.65;5.03;;;;;;;;;;5050135;28;20074;-74
2021/10/14 07:36:32;;;;;;;11.45;4.10;;;;;;;;;;5058949;28;20032;-75
2021/10/14 07:38:58;;;;;;;8.93;5.13;;;;;;;;;;5049026;28;20025;-75
2021/10/14 07:41:24;;;;;;;9.45;5.30;;;;;;;;;;5051723;28;20047;-75
2021/10/14 07:43:50;;;;;;;12.38;6.45;;;;;;;;;;5050964;28;20067;-75
2021/10/14 07:46:16;;;;;;;17.00;5.60;;;;;;;;;;5050914;28;20025;-75
2021/10/14 07:48:42;;;;;;;12.77;5.80;;;;;;;;;;5048414;28;20032;-75
2021/10/14 07:51:09;;;;;;;13.95;6.40;;;;;;;;;;5049570;28;20033;-73
2021/10/14 07:53:35;;;;;;;23.90;10.38;;;;;;;;;;5050707;28;20041;-73
2021/10/14 07:56:01;;;;;;;21.85;8.63;;;;;;;;;;5053355;28;20029;-68
2021/10/14 07:58:27;;;;;;;16.00;7.78;;;;;;;;;;5047801;28;20027;-68
2021/10/14 08:00:53;;;;;;;16.83;7.13;;;;;;;;;;5047949;28;20055;-66
2021/10/14 08:03:19;;;;;;;8.82;3.92;;;;;;;;;;5048839;28;20100;-68
2021/10/14 08:05:45;;;;;;;14.52;5.68;;;;;;;;;;5049091;28;20074;-68
2021/10/14 08:08:11;;;;;;;12.40;5.47;;;;;;;;;;5052573;28;20030;-68
2021/10/14 08:10:37;;;;;;;8.75;4.20;;;;;;;;;;5048336;28;20060;-66
2021/10/14 08:13:03;;;;;;;6.82;3.47;;;;;;;;;;5049057;28;20135;-65
2021/10/14 08:15:29;;;;;;;8.93;3.28;;;;;;;;;;5049826;28;20033;-67
2021/10/14 08:17:56;;;;;;;7.97;3.35;;;;;;;;;;5048867;28;20112;-68
2021/10/14 08:20:22;;;;;;;6.82;3.35;;;;;;;;;;5051250;28;20107;-68
2021/10/14 08:22:49;;;;;;;7.18;3.15;;;;;;;;;;5049574;28;20428;-66
2021/10/14 08:25:15;;;;;;;7.78;2.97;;;;;;;;;;5050150;28;20361;-65
2021/10/14 08:27:42;;;;;;;7.18;2.83;;;;;;;;;;5048231;28;20017;-66
2021/10/14 08:30:09;;;;;;;7.85;3.25;;;;;;;;;;5050795;28;20078;-68
2021/10/14 08:32:35;;;;;;;6.07;2.78;;;;;;;;;;5050119;28;20037;-67
2021/10/14 08:35:01;;;;;;;7.75;3.20;;;;;;;;;;5057254;28;20032;-67
2021/10/14 08:37:29;;;;;;;8.75;3.20;;;;;;;;;;5048622;28;20029;-67
2021/10/14 08:39:55;;;;;;;;;;;;;;;;;;5048601;28;20032;-65
2021/10/14 08:42:21;;;;;;;6.97;3.00;;;;;;;;;;5048101;28;19912;-68
2021/10/14 08:44:48;;;;;;;7.40;3.30;;;;;;;;;;5049758;28;20052;-67
2021/10/14 08:47:15;;;;;;;9.48;3.63;;;;;;;;;;5051906;28;20032;-67
2021/10/14 08:49:45;;;;;;;7.80;3.33;;;;;;;;;;5049842;28;20460;-67
2021/10/14 08:52:11;;;;;;;11.43;3.78;;;;;;;;;;5048030;28;20114;-66
2021/10/14 08:54:37;;;;;;;9.93;3.85;;;;;;;;;;5048152;28;20033;-66
2021/10/14 08:57:03;;;;;;;8.38;3.35;;;;;;;;;;5047146;28;20121;-66
2021/10/14 08:59:29;;;;;;;9.70;3.45;;;;;;;;;;5048140;28;20114;-66
2021/10/14 09:02:11;;;;;;;8.45;3.30;;;;;;;;;;5049507;28;20370;-66
2021/10/14 09:04:40;;;;;;;8.77;2.88;;;;;;;;;;5052780;28;20031;-66
2021/10/14 09:07:10;;;;;;;8.25;3.00;;;;;;;;;;5052448;28;20035;-66
2021/10/14 09:09:37;;;;;;;8.23;2.80;;;;;;;;;;5047183;28;20032;-66
2021/10/14 09:12:07;;;;;;;9.05;2.80;;;;;;;;;;5047679;28;20029;-66
2021/10/14 09:14:34;;;;;;;5.97;2.70;;;;;;;;;;5049752;28;20024;-67
2021/10/14 09:17:00;;;;;;;6.43;2.60;;;;;;;;;;5050030;28;20384;-67
2021/10/14 09:19:26;;;;;;;6.78;2.70;;;;;;;;;;5047692;28;20436;-68
2021/10/14 09:22:02;;;;;;;7.25;3.00;;;;;;;;;;5051688;28;20099;-67
2021/10/14 09:24:35;;;;;;;6.68;2.42;;;;;;;;;;5058626;28;20357;-67
2021/10/14 09:27:08;;;;;;;8.93;2.70;;;;;;;;;;5047634;28;20030;-67
2021/10/14 09:29:37;;;;;;;6.72;2.92;;;;;;;;;;5048648;28;20057;-68
2021/10/14 09:32:04;;;;;;;6.80;2.65;;;;;;;;;;5050301;28;20040;-67
2021/10/14 09:34:30;;;;;;;10.30;2.40;;;;;;;;;;5052017;28;20056;-68
2021/10/14 09:36:57;;;;;;;6.10;2.75;;;;;;;;;;5053783;28;20056;-68
2021/10/14 09:39:23;;;;;;;7.03;2.53;;;;;;;;;;5047396;28;20021;-67
2021/10/14 09:41:49;;;;;;;7.60;2.70;;;;;;;;;;5046270;28;20120;-67
2021/10/14 09:44:19;;;;;;;7.95;2.75;;;;;;;;;;5050690;28;20116;-67
2021/10/14 09:46:45;;;;;;;5.68;2.63;;;;;;;;;;5048648;28;20513;-67
2021/10/14 09:49:12;;;;;;;5.82;2.33;;;;;;;;;;5047573;28;20037;-67
2021/10/14 09:51:39;;;;;;;6.17;2.60;;;;;;;;;;5047296;28;20049;-67
2021/10/14 09:54:05;;;;;;;4.28;2.13;;;;;;;;;;5046805;28;20037;-67
2021/10/14 09:56:32;;;;;;;5.28;2.30;;;;;;;;;;5051025;28;20021;-67
2021/10/14 09:59:01;;;;;;;5.70;2.17;;;;;;;;;;5049661;28;20404;-67
2021/10/14 10:01:27;;;;;;;5.55;2.13;;;;;;;;;;5047372;28;20040;-67
2021/10/14 10:03:55;;;;;;;3.72;1.85;;;;;;;;;;5046963;28;20135;-67
2021/10/14 10:06:28;;;;;;;7.65;2.63;;;;;;;;;;5055594;28;20009;-67
2021/10/14 10:08:55;;;;;;;7.82;2.13;;;;;;;;;;5047433;28;20407;-67
2021/10/14 10:11:21;;;;;;;5.32;2.28;;;;;;;;;;5050819;28;20029;-67
2021/10/14 10:13:52;;;;;;;4.15;1.75;;;;;;;;;;5053923;28;20116;-67
2021/10/14 10:16:18;;;;;;;7.53;1.67;;;;;;;;;;5052292;28;20039;-67
2021/10/14 10:18:45;;;;;;;5.15;1.80;;;;;;;;;;5050882;28;20070;-68
2021/10/14 10:21:29;;;;;;;5.95;2.03;;;;;;;;;;5050725;28;20025;-67
2021/10/14 10:23:55;;;;;;;4.18;2.10;;;;;;;;;;5036633;28;20051;-67
2021/10/14 10:26:36;;;;;;;3.78;1.80;;;;;;;;;;5054899;28;20487;-67
2021/10/14 10:29:25;;;;;;;4.22;1.95;;;;;;;;;;5053086;28;20037;-67
2021/10/14 10:31:57;;;;;;;4.40;1.88;;;;;;;;;;5050776;28;20037;-66
2021/10/14 10:34:38;;;;;;;3.53;1.52;;;;;;;;;;5053101;28;20028;-67
2021/10/14 10:37:47;;;;;;;4.68;1.88;;;;;;;;;;5055223;28;20067;-67
2021/10/14 10:40:24;;;;;;;4.43;1.77;;;;;;;;;;5049112;28;20091;-67
2021/10/14 10:42:59;;;;;;;4.90;1.98;;;;;;;;;;5055508;28;20102;-67
2021/10/14 10:45:26;;;;;;;5.18;1.70;;;;;;;;;;5051843;28;20013;-67
2021/10/14 10:47:56;;;;;;;4.22;1.80;;;;;;;;;;5050476;28;20061;-67
2021/10/14 10:50:26;;;;;;;9.18;1.98;;;;;;;;;;5052111;28;20059;-67
2021/10/14 10:53:11;;;;;;;4.88;2.20;;;;;;;;;;5051320;28;20108;-68
2021/10/14 10:55:40;;;;;;;2.78;1.58;;;;;;;;;;5052288;28;20029;-67
2021/10/14 10:58:07;;;;;;;4.43;1.90;;;;;;;;;;5050136;28;20075;-68
2021/10/14 11:00:33;;;;;;;5.22;1.98;;;;;;;;;;5049697;28;20372;-67
2021/10/14 11:03:07;;;;;;;4.68;1.92;;;;;;;;;;5050069;28;20033;-67
2021/10/14 11:05:40;;;;;;;2.92;1.50;;;;;;;;;;5060144;28;20025;-67
2021/10/14 11:08:07;;;;;;;5.28;1.90;;;;;;;;;;5053289;28;20029;-66
2021/10/14 11:10:33;;;;;;;3.40;1.70;;;;;;;;;;5049998;28;20063;-67
2021/10/14 11:13:01;;;;;;;3.70;1.70;;;;;;;;;;5049357;28;20025;-66
2021/10/14 11:15:28;;;;;;;4.28;1.90;;;;;;;;;;5051626;28;20055;-67
2021/10/14 11:18:04;;;;;;;6.53;1.85;;;;;;;;;;5050145;28;20017;-66
2021/10/14 11:20:30;;;;;;;3.17;1.67;;;;;;;;;;5051629;28;20028;-67
2021/10/14 11:23:06;;;;;;;4.55;1.90;;;;;;;;;;5050443;28;20056;-67
2021/10/14 11:25:33;;;;;;;4.57;1.75;;;;;;;;;;5051908;28;20025;-67
2021/10/14 11:28:10;;;;;;;4.78;1.88;;;;;;;;;;5050892;28;20028;-67
2021/10/14 11:30:42;;;;;;;5.57;2.00;;;;;;;;;;5050128;28;20540;-66
2021/10/14 11:33:28;;;;;;;4.20;1.77;;;;;;;;;;5049029;28;20542;-64
2021/10/14 11:36:07;;;;;;;3.83;1.73;;;;;;;;;;5051898;28;20036;-65
2021/10/14 11:38:34;;;;;;;4.97;1.90;;;;;;;;;;5050497;28;20023;-65
2021/10/14 11:41:01;;;;;;;5.30;2.00;;;;;;;;;;5051202;28;20060;-65
2021/10/14 11:43:28;;;;;;;6.72;1.90;;;;;;;;;;5048992;28;20041;-65
2021/10/14 11:45:55;;;;;;;3.03;1.75;;;;;;;;;;5052091;28;20104;-66
2021/10/14 11:48:27;;;;;;;4.40;2.20;;;;;;;;;;5050775;28;20543;-67
2021/10/14 11:51:06;;;;;;;5.68;2.17;;;;;;;;;;5045544;28;20037;-65
2021/10/14 11:53:32;;;;;;;7.97;2.20;;;;;;;;;;5050479;28;20056;-65
2021/10/14 11:55:59;;;;;;;5.45;2.40;;;;;;;;;;5053016;28;20033;-65
2021/10/14 11:58:25;;;;;;;4.53;2.15;;;;;;;;;;5049399;28;20079;-65
2021/10/14 12:00:51;;;;;;;6.22;2.50;;;;;;;;;;5048772;28;20110;-65
2021/10/14 12:03:18;;;;;;;5.47;2.60;;;;;;;;;;5048448;28;20477;-65
2021/10/14 12:05:44;;;;;;;4.70;2.38;;;;;;;;;;5058349;28;20036;-64
2021/10/14 12:08:10;;;;;;;6.10;2.70;;;;;;;;;;5052668;28;20029;-64
2021/10/14 12:10:38;;;;;;;5.90;2.53;;;;;;;;;;5050301;28;20041;-64
2021/10/14 12:13:08;;;;;;;6.63;2.50;;;;;;;;;;5048669;28;20048;-66
2021/10/14 12:15:34;;;;;;;5.85;2.20;;;;;;;;;;5047754;28;20029;-65
2021/10/14 12:18:00;;;;;;;5.82;2.63;;;;;;;;;;5049812;28;20033;-65
2021/10/14 12:20:27;;;;;;;6.45;3.05;;;;;;;;;;5050824;28;20045;-64
2021/10/14 12:22:54;;;;;;;6.03;2.70;;;;;;;;;;5051478;28;20017;-65
2021/10/14 12:25:34;;;;;;;5.53;2.53;;;;;;;;;;5050160;28;20546;-65
2021/10/14 12:28:00;;;;;;;10.70;4.03;;;;;;;;;;5048539;28;20499;-65
2021/10/14 12:30:27;;;;;;;7.30;3.10;;;;;;;;;;5048109;28;20052;-64
2021/10/14 12:32:57;;;;;;;9.52;3.13;;;;;;;;;;5047991;28;20028;-65
2021/10/14 12:35:28;;;;;;;6.82;3.38;;;;;;;;;;5058286;28;20087;-64
2021/10/14 12:38:07;;;;;;;8.13;3.20;;;;;;;;;;5049638;28;20029;-65
2021/10/14 12:40:34;;;;;;;8.65;3.67;;;;;;;;;;5047900;28;20031;-65
2021/10/14 12:43:06;;;;;;;8.13;3.15;;;;;;;;;;5047209;28;20057;-65
2021/10/14 12:48:37;;;;;;;7.90;3.30;;;;;;;;;;5046570;28;20112;-65
2021/10/14 12:53:40;;;;;;;7.78;3.40;;;;;;;;;;5048835;28;20028;-64
2021/10/14 12:56:06;;;;;;;7.13;3.53;;;;;;;;;;5052012;28;20033;-64
2021/10/14 12:58:32;;;;;;;6.35;3.30;;;;;;;;;;5048970;28;20231;-64
2021/10/14 13:00:59;;;;;;;9.10;3.28;;;;;;;;;;5048763;28;20130;-64
2021/10/14 13:03:25;;;;;;;9.57;3.10;;;;;;;;;;5047220;28;20025;-65
2021/10/14 13:05:51;;;;;;;7.25;3.80;;;;;;;;;;5050928;28;20106;-65
2021/10/14 13:08:17;;;;;;;7.13;3.50;;;;;;;;;;5050430;28;20469;-65
2021/10/14 13:10:43;;;;;;;7.10;3.35;;;;;;;;;;5050107;28;20037;-65
2021/10/14 13:13:11;;;;;;;6.15;3.28;;;;;;;;;;5046831;28;20500;-65
2021/10/14 13:15:37;;;;;;;6.95;3.50;;;;;;;;;;5048047;28;20021;-65
2021/10/14 13:18:03;;;;;;;5.90;2.70;;;;;;;;;;5049223;28;20039;-65
2021/10/14 13:20:30;;;;;;;7.75;3.35;;;;;;;;;;5049621;28;20017;-65
2021/10/14 13:22:56;;;;;;;6.75;3.25;;;;;;;;;;5049811;28;20465;-65
2021/10/14 13:25:22;;;;;;;5.88;2.90;;;;;;;;;;5047007;28;20079;-65
2021/10/14 13:27:47;;;;;;;7.15;3.03;;;;;;;;;;5047666;28;20025;-65
2021/10/14 13:30:13;;;;;;;7.60;3.15;;;;;;;;;;5047329;28;20099;-65
2021/10/14 13:32:40;;;;;;;7.50;3.40;;;;;;;;;;5048331;28;20049;-65
2021/10/14 13:35:07;;;;;;;7.22;2.95;;;;;;;;;;5058604;28;20023;-65
2021/10/14 13:37:33;;;;;;;5.75;2.97;;;;;;;;;;5047890;28;20025;-65
2021/10/14 13:40:00;;;;;;;6.50;3.17;;;;;;;;;;5049025;28;20028;-65
2021/10/14 13:42:30;;;;;;;7.45;3.22;;;;;;;;;;5046193;28;20056;-66
2021/10/14 13:44:58;;;;;;;7.10;3.17;;;;;;;;;;5049258;28;20059;-65
2021/10/14 13:47:24;;;;;;;8.35;3.22;;;;;;;;;;5052843;28;20028;-65
2021/10/14 13:49:50;;;;;;;8.00;3.55;;;;;;;;;;5053834;28;20086;-65
2021/10/14 13:52:16;;;;;;;5.95;3.10;;;;;;;;;;5051701;28;20033;-65
2021/10/14 13:54:42;;;;;;;6.13;3.03;;;;;;;;;;5053911;28;20395;-65
2021/10/14 13:57:08;;;;;;;6.15;2.78;;;;;;;;;;5051660;28;20021;-65
2021/10/14 13:59:34;;;;;;;8.13;3.20;;;;;;;;;;5052210;28;21629;-66
2021/10/14 14:02:01;;;;;;;8.52;3.10;;;;;;;;;;5052965;28;20031;-66
2021/10/14 14:04:28;;;;;;;10.02;3.30;;;;;;;;;;5054373;28;20021;-65
2021/10/14 14:06:54;;;;;;;8.00;2.75;;;;;;;;;;5057413;28;20043;-65
2021/10/14 14:09:20;;;;;;;6.10;2.97;;;;;;;;;;5051251;28;20036;-66
2021/10/14 14:11:46;;;;;;;8.10;3.30;;;;;;;;;;5051115;28;20021;-65
2021/10/14 14:14:13;;;;;;;7.07;2.60;;;;;;;;;;5055072;28;20032;-66
2021/10/14 14:16:39;;;;;;;5.97;3.22;;;;;;;;;;5051071;28;20079;-66
2021/10/14 14:19:06;;;;;;;9.50;3.25;;;;;;;;;;5050868;28;20037;-66
2021/10/14 14:21:35;;;;;;;5.75;2.80;;;;;;;;;;5050958;28;20021;-66
2021/10/14 14:24:02;;;;;;;8.55;3.17;;;;;;;;;;5050962;28;20064;-66
2021/10/14 14:26:29;;;;;;;7.20;3.20;;;;;;;;;;5054724;28;20020;-66
2021/10/14 14:28:55;;;;;;;9.18;3.17;;;;;;;;;;5050684;28;20098;-66
2021/10/14 14:31:21;;;;;;;5.53;2.90;;;;;;;;;;5050521;28;20053;-66
2021/10/14 14:33:48;;;;;;;6.30;3.33;;;;;;;;;;5049159;28;20101;-66
2021/10/14 14:36:16;;;;;;;6.57;3.13;;;;;;;;;;5060334;28;20373;-66
2021/10/14 14:38:42;;;;;;;8.00;3.28;;;;;;;;;;5034624;28;20053;-66
2021/10/14 14:41:08;;;;;;;6.45;2.72;;;;;;;;;;5053478;28;20063;-66
2021/10/14 14:43:38;;;;;;;7.30;3.15;;;;;;;;;;5047545;28;20136;-66
2021/10/14 14:46:13;;;;;;;8.77;3.05;;;;;;;;;;5047115;28;20029;-67